ADDS METAR Data INFO
IDs: Format: Raw Decoded Include TAF

Data at: 0109 UTC 24 Jun 2018

KPHD 240053Z AUTO 00000KT 10SM OVC080 23/19 A2980 RMK AO2 SLP084 T02280194
KPHD 232353Z AUTO VRB03KT 10SM FEW036 BKN055 OVC075 24/19 A2979 RMK AO2 SLP081 60007 T02390194 10261 20211 53005
KPHD 232253Z AUTO 30005KT 10SM SCT110 24/20 A2977 RMK AO2 SLP074 T02440200
KPHD 232153Z AUTO VRB04KT 10SM FEW024 FEW080 OVC095 22/19 A2977 RMK AO2 RAE03B34E53 SLP076 P0000 T02170189
KPHD 232053Z AUTO 00000KT 9SM -RA FEW030 BKN038 OVC055 22/19 A2977 RMK AO2 RAB07E31B53 SLP076 P0007 60007 T02220194 53007
KPHD 232022Z AUTO 29005KT 3SM -RA BR FEW025 BKN046 OVC080 21/19 A2977 RMK AO2 RAB07 P0007 T02110189
KPHD 232012Z AUTO 31009G21KT 1 3/4SM +RA FEW025 BKN033 OVC049 22/19 A2977 RMK AO2 VIS 3/4V5 RAB07 P0005 T02170189
KPHD 231953Z AUTO 26007KT 10SM FEW036 BKN046 BKN095 25/18 A2975 RMK AO2 SLP067 T02500178
KPHD 231853Z AUTO VRB05KT 10SM FEW060 SCT080 26/19 A2975 RMK AO2 SLP069 T02560189
KPHD 231753Z AUTO 24007KT 10SM CLR 24/19 A2975 RMK AO2 RAB02E23 SLP068 P0004 60008 T02440194 10244 20194 58004
KPHD 231713Z AUTO 26005KT 3SM -RA BR FEW047 BKN060 BKN090 21/19 A2976 RMK AO2 RAB02 P0004 T02110189
KPHD 231709Z AUTO 23005G16KT 1 3/4SM -RA BR SCT055 SCT070 BKN090 21/19 A2977 RMK AO2 VIS 3/4V4 RAB02 P0003 T02110189
KPHD 231653Z AUTO VRB03KT 10SM FEW023 23/19 A2976 RMK AO2 RAB17E41 SLP072 P0004 T02330194
KPHD 231645Z AUTO 20003KT 10SM FEW021 SCT027 23/20 A2976 RMK AO2 RAB17E41 P0004 T02280200
KPHD 231636Z AUTO 23003KT 7SM -RA BKN023 BKN033 BKN060 22/19 A2976 RMK AO2 LTG DSNT N RAB17 P0004 T02170194
KPHD 231623Z AUTO 28009KT 2 1/2SM RA BKN023 BKN033 OVC049 22/18 A2977 RMK AO2 VIS 1 1/2V5 LTG DSNT N RAB17 P0003 T02220183
KPHD 231553Z AUTO VRB05KT 10SM FEW023 BKN070 OVC110 23/18 A2976 RMK AO2 SLP073 T02280183
KPHD 231453Z AUTO 21006KT 10SM FEW018 SCT022 BKN029 22/18 A2976 RMK AO2 SLP074 60000 T02170183 50001
KPHD 231444Z AUTO 21006KT 10SM SCT018 SCT026 BKN035 22/19 A2976 RMK AO2 T02170189
KPHD 231353Z AUTO 20006KT 10SM SCT015 BKN024 BKN031 21/19 A2977 RMK AO2 RAB1256E19 SLP075 P0000 T02110189
KPHD 231330Z AUTO 20005KT 10SM SCT017 BKN026 OVC060 21/18 A2977 RMK AO2 RAB1256E19 P0000 T02060183
KPHD 231253Z AUTO 19004KT 9SM SCT015 BKN042 OVC048 20/18 A2977 RMK AO2 RAB00E21 SLP076 P0000 T02000183
KPHD 231250Z AUTO 19006KT 9SM SCT015 BKN039 OVC048 20/18 A2977 RMK AO2 RAB00E21 P0000
KPHD 231153Z AUTO 18003KT 9SM BKN014 OVC021 20/18 A2976 RMK AO2 RAB33E39 SLP073 P0000 60000 70035 T02000183 10200 20194 50008
KPHD 231148Z AUTO 18004KT 10SM BKN014 OVC025 20/18 A2976 RMK AO2 RAB33E39 P0000
KPHD 231053Z AUTO 17005KT 10SM BKN017 BKN023 OVC070 20/18 A2975 RMK AO2 SLP070 T02000178
KPHD 231038Z AUTO 19004KT 10SM SCT014 BKN022 OVC070 20/18 A2975 RMK AO2 T02000178
KPHD 231012Z AUTO 15004KT 10SM BKN014 OVC024 19/19 A2974 RMK AO2 T01940189
KPHD 230953Z AUTO 14004KT 10SM SCT014 OVC022 19/19 A2974 RMK AO2 SLP064 T01940189
KPHD 230853Z AUTO 13005KT 10SM BKN018 OVC040 19/18 A2972 RMK AO2 LTG DSNT E SLP060 60000 T01940183 58005
KPHD 230807Z AUTO 13005KT 10SM FEW008 BKN018 OVC024 19/18 A2973 RMK AO2 T01940183
KPHD 230753Z AUTO 14004KT 10SM SCT008 OVC014 19/18 A2973 RMK AO2 RAB21E31 SLP063 P0000 T01940183
KPHD 230748Z AUTO 13004KT 10SM SCT008 OVC014 19/18 A2974 RMK AO2 RAB21E31 P0000
KPHD 230735Z AUTO 12004KT 10SM BKN010 OVC016 20/18 A2974 RMK AO2 RAB21E31 CIG 007V013 P0000 T02000183
KPHD 230653Z AUTO 13004KT 10SM OVC008 20/19 A2974 RMK AO2 SLP065 T02000189
KPHD 230553Z AUTO 11005KT 10SM OVC007 19/18 A2973 RMK AO2 SLP063 T01940183 10200 20194 58005
KPHD 230453Z AUTO VRB03KT 10SM OVC008 19/18 A2975 RMK AO2 SLP069 T01940183 402330194
KPHD 230426Z AUTO 11005KT 10SM OVC009 19/18 A2975 RMK AO2 T01940178
KPHD 230353Z AUTO 11004KT 10SM OVC013 19/18 A2975 RMK AO2 SLP068 T01940178
KPHD 230320Z AUTO 10004KT 10SM BKN016 19/18 A2974 RMK AO2 T01940178
KPHD 230253Z AUTO 11005KT 10SM CLR 19/18 A2976 RMK AO2 SLP072 T01940178 58001
KPHD 230236Z AUTO 12004KT 10SM SCT017 19/18 A2976 RMK AO2 T01940183
KPHD 230212Z AUTO 14005KT 10SM BKN018 19/18 A2976 RMK AO2 T01940178
KPHD 230153Z AUTO 13007KT 10SM FEW020 FEW095 19/18 A2976 RMK AO2 SLP073 T01940178
KPHD 230120Z AUTO 12007KT 10SM FEW009 SCT065 BKN100 20/18 A2976 RMK AO2 T02000183
KPHD 230053Z AUTO 15005KT 10SM SCT010 BKN070 BKN110 20/19 A2977 RMK AO2 SLP076 T02000189
KPHD 222353Z AUTO 10003KT 10SM FEW011 FEW037 OVC080 19/19 A2976 RMK AO2 RAE38 TSE08 SLP073 P0005 60027 T01940189 10233 20194 58007
KPHD 222318Z AUTO 12004KT 3SM -RA BR SCT060 BKN070 OVC095 19/18 A2977 RMK AO2 LTG DSNT S TSE08 P0004 T01940183
KPHD 222310Z AUTO 04006KT 2 1/2SM VCTS RA BR FEW014 BKN060 OVC070 19/18 A2977 RMK AO2 TSE08 PRESFR P0003 T01940183
KPHD 222302Z AUTO 07003KT 6SM -TSRA BR FEW014 BKN055 OVC070 19/18 A2978 RMK AO2 LTG DSNT NW P0000 T01940183
KPHD 222255Z AUTO 00000KT 2SM -TSRA BR FEW014 BKN032 OVC060 20/18 A2979 RMK AO2 LTG DSNT SE AND NW P0000 T02000183
KPHD 222253Z AUTO 00000KT 1SM -TSRA BR FEW014 BKN034 OVC060 19/18 A2980 RMK AO2 LTG DSNT SE AND NW RAB42 TSB53 SLP086 P0020 T01940183
KPHD 222249Z AUTO 23003KT 1/4SM VCTS +RA FG FEW014 BKN029 OVC038 20/18 A2980 RMK AO2 LTG DSNT SE AND NW RAB42 P0019
KPHD 222242Z AUTO 26004KT 1SM VCTS -RA FEW013 BKN022 OVC038 21/18 A2979 RMK AO2 LTG DSNT SW AND NW RAB42 P0013 T02060178
KPHD 222153Z AUTO 33007KT 10SM SCT015 BKN023 OVC090 21/18 A2978 RMK AO2 LTG DSNT SW-NW SLP079 T02110178
KPHD 222151Z AUTO 31006KT 10SM BKN017 BKN032 OVC090 22/18 A2978 RMK AO2 LTG DSNT SW-NW CIG 014V024
KPHD 222142Z AUTO 27003KT 10SM VCTS SCT017 BKN032 OVC095 23/19 A2978 RMK AO2 LTG DSNT SW-NW T02280194
KPHD 222053Z AUTO 14008G16KT 10SM FEW018 BKN100 23/20 A2976 RMK AO2 LTG DSNT SW-NW RAB1956E22 SLP073 P0000 60002 T02330200 55003
KPHD 222016Z AUTO 12012KT 10SM -RA BKN034 BKN075 OVC110 23/21 A2976 RMK AO2 LTG DSNT SW-NW RAB1956 P0000 T02330211
KPHD 221953Z AUTO 11009KT 10SM SCT013 BKN026 OVC120 23/21 A2976 RMK AO2 LTG DSNT SW AND W RAE11 SLP071 P0001 T02330211
KPHD 221853Z AUTO 13010KT 10SM -RA OVC010 22/21 A2976 RMK AO2 RAB1758 SLP072 P0001 T02220206
KPHD 221829Z AUTO 11007KT 10SM -RA OVC010 22/21 A2976 RMK AO2 RAB1758 CIG 008V013 P0001 T02220206
KPHD 221753Z AUTO 13007KT 10SM OVC009 22/21 A2977 RMK AO2 RAB19E33 SLP076 P0000 60008 T02220206 10222 20194 58009
KPHD 221653Z AUTO VRB05KT 10SM OVC008 22/20 A2979 RMK AO2 SLP082 T02170200
KPHD 221553Z AUTO 14004KT 9SM OVC007 21/20 A2980 RMK AO2 RAE53 SLP085 P0001 T02110200
KPHD 221453Z AUTO 12005KT 5SM -RA BR OVC008 20/19 A2980 RMK AO2 RAB21 CIG 005V013 SLP086 P0007 60007 T02000189 53002
KPHD 221434Z AUTO 11005KT 4SM -RA BR OVC006 20/19 A2980 RMK AO2 RAB21 P0007 T02000189
KPHD 221424Z AUTO 10006KT 1 1/2SM RA BR OVC006 20/19 A2980 RMK AO2 RAB21 P0006 T02000189
KPHD 221353Z AUTO 11006KT 10SM OVC007 20/18 A2980 RMK AO2 SLP086 T02000183